Time;durP1;ratioP1;P1;durP2;ratioP2;P2;SDS_P1;SDS_P2;PMS_P1;PMS_P2;Temp;Humidity;BMP_temperature;BMP_pressure;BME280_temperature;BME280_humidity;BME280_pressure;Samples;Min_cycle;Max_cycle;Signal;HPM_P1;HPM_P2
2021/07/12 00:00:13;;;;;;;6.78;4.85;;;;;;;18.75;78.22;101075.56;5041528;28;20050;-68
2021/07/12 00:02:39;;;;;;;9.20;5.07;;;;;;;18.69;78.56;101077.66;5054210;28;20048;-68
2021/07/12 00:05:08;;;;;;;9.20;5.53;;;;;;;18.62;78.96;101072.66;5040627;28;20503;-69
2021/07/12 00:07:34;;;;;;;8.98;5.35;;;;;;;18.64;78.90;101083.97;5043989;28;20049;-68
2021/07/12 00:10:02;;;;;;;10.38;5.25;;;;;;;18.59;78.96;101074.59;5049867;28;20048;-69
2021/07/12 00:12:29;;;;;;;8.95;5.55;;;;;;;18.55;79.14;101076.50;5046032;28;20049;-66
2021/07/12 00:14:55;;;;;;;7.55;4.88;;;;;;;18.51;79.37;101076.72;5048062;28;20045;-69
2021/07/12 00:17:21;;;;;;;7.72;5.13;;;;;;;18.52;79.40;101079.28;5044095;28;20414;-69
2021/07/12 00:19:48;;;;;;;9.82;5.63;;;;;;;18.56;78.96;101070.31;5042782;28;20141;-68
2021/07/12 00:22:14;;;;;;;12.38;5.50;;;;;;;18.55;79.31;101068.59;5045288;28;20044;-68
2021/07/12 00:24:41;;;;;;;7.72;5.13;;;;;;;18.47;79.56;101068.13;5040568;28;20226;-67
2021/07/12 00:27:08;;;;;;;6.85;4.78;;;;;;;18.45;79.50;101064.69;5048439;28;20411;-69
2021/07/12 00:29:35;;;;;;;9.23;5.03;;;;;;;18.39;79.67;101065.00;5050590;28;20511;-67
2021/07/12 00:32:02;;;;;;;10.20;6.07;;;;;;;18.33;79.61;101064.34;5053406;28;20051;-68
2021/07/12 00:34:28;;;;;;;7.65;5.50;;;;;;;18.24;79.77;101062.16;5047546;28;20106;-66
2021/07/12 00:36:55;;;;;;;8.05;5.38;;;;;;;18.26;80.06;101060.31;5048479;28;20044;-68
2021/07/12 00:39:22;;;;;;;9.45;5.35;;;;;;;18.26;80.24;101073.47;5042844;28;20102;-68
2021/07/12 00:41:48;;;;;;;7.35;5.68;;;;;;;18.26;80.39;101062.94;5058400;28;20102;-68
2021/07/12 00:44:16;;;;;;;7.72;5.68;;;;;;;18.26;80.02;101070.00;5048204;28;20045;-69
2021/07/12 00:46:43;;;;;;;8.25;6.07;;;;;;;18.24;79.99;101066.56;5052106;28;20113;-69
2021/07/12 00:49:09;;;;;;;9.40;6.78;;;;;;;18.23;79.93;101055.16;5050165;28;20049;-68
2021/07/12 00:51:35;;;;;;;8.07;6.53;;;;;;;18.27;79.48;101061.13;5050424;28;20041;-69
2021/07/12 00:54:02;;;;;;;8.25;6.68;;;;;;;18.24;79.64;101056.88;5052002;28;20048;-68
2021/07/12 00:56:29;;;;;;;7.55;5.97;;;;;;;18.16;80.12;101054.63;5043338;28;20100;-67
2021/07/12 00:58:55;;;;;;;9.38;6.32;;;;;;;18.05;80.32;101051.63;5036119;28;20132;-68
2021/07/12 01:01:23;;;;;;;7.30;5.82;;;;;;;18.03;80.19;101051.69;5044345;28;20037;-67
2021/07/12 01:03:50;;;;;;;12.43;6.55;;;;;;;18.00;80.23;101043.94;5047225;28;20469;-68
2021/07/12 01:06:16;;;;;;;9.55;6.32;;;;;;;17.97;80.55;101037.94;5052262;28;20107;-66
2021/07/12 01:08:43;;;;;;;9.35;6.15;;;;;;;17.92;80.52;101032.84;5055815;28;20052;-68
2021/07/12 01:11:14;;;;;;;11.35;6.25;;;;;;;17.90;80.59;101031.22;5038158;28;20057;-67
2021/07/12 01:13:47;;;;;;;12.63;6.18;;;;;;;17.75;81.32;101025.75;5044651;28;20056;-67
2021/07/12 01:16:28;;;;;;;13.18;7.05;;;;;;;17.61;81.82;101025.47;5039570;28;20414;-67
2021/07/12 01:19:15;;;;;;;9.80;6.60;;;;;;;17.63;82.21;101029.75;5057812;28;20094;-68
2021/07/12 01:22:07;;;;;;;8.90;6.20;;;;;;;17.70;82.02;101020.69;5041082;28;20417;-68
2021/07/12 01:25:18;;;;;;;8.05;5.60;;;;;;;17.74;81.76;101024.03;5045489;28;20045;-67
2021/07/12 01:28:09;;;;;;;7.78;5.82;;;;;;;17.75;81.55;101019.59;5046845;28;20103;-66
2021/07/12 01:31:03;;;;;;;9.52;6.18;;;;;;;17.77;81.83;101015.13;5045557;28;20096;-67
2021/07/12 01:33:35;;;;;;;12.25;6.60;;;;;;;17.74;81.97;101010.88;5037839;28;20056;-67
2021/07/12 01:36:07;;;;;;;12.38;5.63;;;;;;;17.77;81.88;101005.44;5037483;28;20072;-68
2021/07/12 01:38:41;;;;;;;10.32;6.05;;;;;;;17.78;81.51;101004.53;5049856;28;20437;-68
2021/07/12 01:41:20;;;;;;;8.48;5.93;;;;;;;17.74;81.40;100994.22;5055995;28;20049;-67
2021/07/12 01:43:55;;;;;;;12.23;6.30;;;;;;;17.74;81.74;101002.09;5043737;28;20054;-67
2021/07/12 01:46:27;;;;;;;8.30;6.10;;;;;;;17.71;81.85;101003.09;5044172;28;20536;-67
2021/07/12 01:49:04;;;;;;;12.02;5.65;;;;;;;17.67;82.07;100999.75;5058700;28;20052;-67
2021/07/12 01:51:33;;;;;;;8.65;5.93;;;;;;;17.60;82.41;101005.34;5048647;28;20564;-67
2021/07/12 01:54:07;;;;;;;9.75;6.40;;;;;;;17.56;82.29;101010.78;5058648;28;20052;-67
2021/07/12 01:56:43;;;;;;;9.15;6.20;;;;;;;17.56;82.43;101004.66;5040880;28;20061;-65
2021/07/12 01:59:17;;;;;;;8.70;6.15;;;;;;;17.55;82.62;101000.31;5053664;28;20036;-67
2021/07/12 02:01:45;;;;;;;9.17;5.93;;;;;;;17.60;82.69;101003.59;5047111;28;20052;-68
2021/07/12 02:04:15;;;;;;;8.23;5.57;;;;;;;17.66;82.67;100997.22;5044991;28;20052;-68
2021/07/12 02:06:42;;;;;;;10.63;6.25;;;;;;;17.64;82.41;100994.63;5047097;28;20049;-67
2021/07/12 02:09:13;;;;;;;10.63;6.25;;;;;;;17.64;82.73;100986.75;5059250;28;20053;-67
2021/07/12 02:11:43;;;;;;;7.90;6.03;;;;;;;17.56;82.68;100989.75;5053371;28;20095;-68
2021/07/12 02:14:11;;;;;;;8.02;6.10;;;;;;;17.58;82.52;100994.03;5058081;28;20136;-67
2021/07/12 02:16:39;;;;;;;10.45;6.47;;;;;;;17.56;82.40;100991.50;5043815;28;20049;-68
2021/07/12 02:19:08;;;;;;;9.02;6.22;;;;;;;17.55;82.51;100995.03;5042069;28;20052;-67
2021/07/12 02:21:38;;;;;;;7.80;6.32;;;;;;;17.58;82.32;100991.41;5049277;28;20040;-68
2021/07/12 02:24:06;;;;;;;9.52;6.57;;;;;;;17.59;82.41;100996.63;5048121;28;20041;-67
2021/07/12 02:26:34;;;;;;;10.32;5.93;;;;;;;17.56;82.57;100997.63;5052293;28;20049;-67
2021/07/12 02:29:02;;;;;;;9.00;5.68;;;;;;;17.55;82.37;100998.53;5046975;28;20541;-68
2021/07/12 02:31:31;;;;;;;8.38;5.70;;;;;;;17.56;82.20;100983.59;5038926;28;20555;-67
2021/07/12 02:34:00;;;;;;;11.05;5.75;;;;;;;17.53;82.19;100981.09;5060329;28;20086;-68
2021/07/12 02:36:27;;;;;;;12.88;6.10;;;;;;;17.47;82.15;100978.75;5045860;28;20099;-68
2021/07/12 02:38:56;;;;;;;9.00;5.90;;;;;;;17.34;82.43;100983.72;5050362;28;20106;-68
2021/07/12 02:41:24;;;;;;;9.38;5.80;;;;;;;17.28;82.79;100987.47;5058924;28;20087;-67
2021/07/12 02:43:52;;;;;;;7.38;5.90;;;;;;;17.30;82.63;100985.63;5056805;28;20425;-70
2021/07/12 02:46:20;;;;;;;9.32;6.43;;;;;;;17.28;82.75;100973.44;5050447;28;20099;-67
2021/07/12 02:48:46;;;;;;;8.40;6.35;;;;;;;17.25;83.07;100982.31;5052450;28;20098;-68
2021/07/12 02:51:16;;;;;;;9.90;6.25;;;;;;;17.26;83.33;100976.16;5056574;28;20049;-68
2021/07/12 02:53:48;;;;;;;9.70;6.35;;;;;;;17.27;nan;100974.38;5059116;28;20044;-67
2021/07/12 02:56:16;;;;;;;8.88;6.65;;;;;;;17.29;83.06;100968.13;5051503;28;20095;-66
2021/07/12 02:58:43;;;;;;;8.30;5.97;;;;;;;17.25;83.10;100962.16;5051886;28;20075;-67
2021/07/12 03:01:09;;;;;;;11.38;6.47;;;;;;;17.16;83.27;100959.06;5042744;28;20202;-68
2021/07/12 03:03:36;;;;;;;12.02;6.47;;;;;;;17.12;83.27;100966.22;5056612;28;20525;-67
2021/07/12 03:06:10;;;;;;;11.98;6.03;;;;;;;17.12;83.22;100971.50;5058079;28;20100;-66
2021/07/12 03:08:43;;;;;;;13.77;6.40;;;;;;;17.13;83.20;100978.47;5045777;28;20054;-67
2021/07/12 03:11:13;;;;;;;9.38;6.22;;;;;;;17.14;83.23;100974.03;5061218;28;20102;-67
2021/07/12 03:13:50;;;;;;;15.00;7.38;;;;;;;17.07;83.39;100973.44;5041612;28;20049;-67
2021/07/12 03:16:18;;;;;;;11.70;6.32;;;;;;;17.05;83.46;100970.06;5040508;28;20426;-68
2021/07/12 03:18:50;;;;;;;11.63;6.25;;;;;;;16.99;83.39;100965.91;5051840;28;20052;-68
2021/07/12 03:21:19;;;;;;;14.05;6.40;;;;;;;16.97;83.48;100956.38;5048719;28;20541;-67
2021/07/12 03:23:49;;;;;;;10.88;6.55;;;;;;;16.97;83.66;100948.50;5050988;28;20049;-67
2021/07/12 03:26:19;;;;;;;10.25;7.05;;;;;;;16.97;83.57;100948.50;5046760;28;20083;-68
2021/07/12 03:28:49;;;;;;;11.82;7.22;;;;;;;16.94;83.67;100945.09;5053910;28;20135;-66
2021/07/12 03:31:21;;;;;;;15.57;7.18;;;;;;;16.96;83.41;100938.91;5050693;28;20040;-67
2021/07/12 03:33:49;;;;;;;10.38;7.18;;;;;;;16.85;84.08;100952.44;5046676;28;20044;-67
2021/07/12 03:36:16;;;;;;;12.50;7.22;;;;;;;16.82;84.10;100953.44;5039019;28;20060;-68
2021/07/12 03:38:43;;;;;;;11.55;8.43;;;;;;;16.81;84.08;100954.34;5049663;28;20052;-68
2021/07/12 03:41:10;;;;;;;10.82;8.40;;;;;;;16.90;84.16;100955.75;5047800;28;20049;-67
2021/07/12 03:43:39;;;;;;;11.35;7.65;;;;;;;16.93;84.24;100948.63;5049901;28;20045;-68
2021/07/12 03:46:08;;;;;;;12.65;7.63;;;;;;;16.94;84.23;100947.72;5055816;28;20052;-68
2021/07/12 03:48:36;;;;;;;11.52;8.10;;;;;;;16.95;84.27;100943.28;5044727;28;20045;-66
2021/07/12 03:51:05;;;;;;;14.57;8.15;;;;;;;17.06;84.08;100945.47;5041514;28;20049;-67
2021/07/12 03:53:32;;;;;;;14.43;8.18;;;;;;;17.07;83.96;100942.78;5041956;28;20053;-67
2021/07/12 03:55:59;;;;;;;12.48;7.93;;;;;;;17.10;83.77;100936.53;5051732;28;20131;-67
2021/07/12 03:58:25;;;;;;;14.00;7.78;;;;;;;17.18;83.61;100939.66;5044658;28;20099;-67
2021/07/12 04:00:52;;;;;;;12.95;7.90;;;;;;;17.26;83.22;100934.09;5039162;28;20045;-67
2021/07/12 04:03:20;;;;;;;10.60;8.18;;;;;;;17.28;83.30;100923.50;5049505;28;20049;-68
2021/07/12 04:05:46;;;;;;;14.15;7.97;;;;;;;17.28;83.08;100932.25;5052323;28;20061;-68
2021/07/12 04:08:13;;;;;;;15.18;8.27;;;;;;;17.31;82.77;100936.50;5043849;28;20083;-66
2021/07/12 04:10:39;;;;;;;11.13;8.48;;;;;;;17.32;82.55;100927.69;5061795;28;20128;-68
2021/07/12 04:13:06;;;;;;;18.67;9.18;;;;;;;17.33;82.27;100922.38;5069094;28;20068;-68
2021/07/12 04:15:32;;;;;;;13.38;9.10;;;;;;;17.33;82.03;100925.00;5043543;28;20067;-67
2021/07/12 04:17:59;;;;;;;16.80;8.93;;;;;;;17.31;82.26;100923.38;5055288;28;20049;-66
2021/07/12 04:20:26;;;;;;;13.63;9.43;;;;;;;17.18;82.78;100923.06;5054188;28;20114;-66
2021/07/12 04:22:53;;;;;;;13.13;9.55;;;;;;;17.18;82.95;100923.06;5052395;28;20052;-66
2021/07/12 04:25:19;;;;;;;14.02;9.32;;;;;;;17.25;83.06;100924.47;5053455;28;20052;-67
2021/07/12 04:27:47;;;;;;;14.95;9.20;;;;;;;17.24;83.13;100928.03;5055829;28;20053;-68
2021/07/12 04:30:14;;;;;;;20.55;10.80;;;;;;;17.31;82.98;100932.13;5044624;28;20499;-68
2021/07/12 04:32:41;;;;;;;16.88;11.50;;;;;;;17.34;82.90;100933.75;5054021;28;20057;-67
2021/07/12 04:35:10;;;;;;;13.27;10.52;;;;;;;17.43;82.69;100927.22;5056063;28;20041;-67
2021/07/12 04:37:37;;;;;;;16.73;10.77;;;;;;;17.51;82.50;100928.56;5043682;28;20063;-68
2021/07/12 04:40:05;;;;;;;16.92;10.55;;;;;;;17.69;82.44;100928.66;5056254;28;20103;-68
2021/07/12 04:42:31;;;;;;;15.07;11.65;;;;;;;17.79;82.04;100932.56;5052380;28;20048;-67
2021/07/12 04:44:58;;;;;;;15.93;11.63;;;;;;;17.82;81.60;100926.31;5055535;28;20059;-68
2021/07/12 04:47:24;;;;;;;14.45;11.18;;;;;;;17.89;81.53;100925.13;5052943;28;20738;-68
2021/07/12 04:49:51;;;;;;;14.43;11.40;;;;;;;17.96;81.29;100920.41;5053391;28;20052;-67
2021/07/12 04:52:17;;;;;;;17.85;11.52;;;;;;;18.06;81.03;100920.84;5056801;28;20049;-67
2021/07/12 04:54:45;;;;;;;17.60;11.27;;;;;;;18.14;80.76;100918.69;5048492;28;20078;-69
2021/07/12 04:57:11;;;;;;;17.80;10.65;;;;;;;18.17;80.74;100913.28;5049901;28;20106;-67
2021/07/12 04:59:39;;;;;;;16.35;12.38;;;;;;;18.17;80.63;100910.66;5058856;28;20052;-68
2021/07/12 05:02:06;;;;;;;19.05;12.63;;;;;;;18.19;80.65;100906.19;5060308;28;20044;-67
2021/07/12 05:04:33;;;;;;;17.02;12.23;;;;;;;18.22;80.75;100913.91;5061331;28;20048;-66
2021/07/12 05:07:00;;;;;;;21.65;12.95;;;;;;;18.25;80.84;100905.03;5044951;28;20136;-67
2021/07/12 05:09:26;;;;;;;17.05;12.98;;;;;;;18.29;80.76;100904.81;5050076;28;20056;-68
2021/07/12 05:11:54;;;;;;;17.38;13.77;;;;;;;18.41;80.48;100908.59;5042674;28;20464;-68
2021/07/12 05:14:21;;;;;;;19.58;12.85;;;;;;;18.47;79.98;100910.91;5051639;28;20048;-68
2021/07/12 05:16:47;;;;;;;17.10;13.57;;;;;;;18.54;80.10;100906.22;5053955;28;20380;-67
2021/07/12 05:19:14;;;;;;;17.30;11.93;;;;;;;18.71;79.28;100905.38;5062566;28;20044;-68
2021/07/12 05:21:41;;;;;;;20.27;13.90;;;;;;;18.84;79.35;100897.69;5057538;28;20112;-67
2021/07/12 05:24:08;;;;;;;32.45;14.27;;;;;;;19.01;78.63;100896.00;5059592;28;20044;-68
2021/07/12 05:26:35;;;;;;;17.23;13.25;;;;;;;19.07;78.54;100893.03;5065364;28;20434;-68
2021/07/12 05:29:02;;;;;;;18.73;13.57;;;;;;;19.16;78.06;100910.16;5049814;28;20099;-67
2021/07/12 05:31:29;;;;;;;20.67;14.27;;;;;;;19.24;77.83;100906.16;5049083;28;20071;-67
2021/07/12 05:33:55;;;;;;;21.15;13.60;;;;;;;19.27;77.49;100890.19;5047493;28;20419;-65
2021/07/12 05:36:22;;;;;;;17.83;13.35;;;;;;;19.43;77.27;100892.00;5051093;28;20497;-67
2021/07/12 05:38:48;;;;;;;18.85;13.63;;;;;;;19.48;76.60;100889.09;5054737;28;20040;-67
2021/07/12 05:41:14;;;;;;;21.13;13.35;;;;;;;19.62;76.17;100890.97;5059119;28;20098;-68
2021/07/12 05:43:41;;;;;;;16.88;12.77;;;;;;;19.76;75.68;100901.66;5060842;28;20052;-67
2021/07/12 05:46:09;;;;;;;21.42;13.77;;;;;;;19.82;76.11;100903.09;5056115;28;20072;-67
2021/07/12 05:48:35;;;;;;;19.35;13.20;;;;;;;19.83;76.28;100899.53;5051162;28;20041;-67
2021/07/12 05:51:02;;;;;;;21.27;13.00;;;;;;;19.91;76.33;100913.16;5050020;28;20062;-67
2021/07/12 05:53:28;;;;;;;19.92;13.00;;;;;;;20.04;75.46;100906.28;5061752;28;20045;-67
2021/07/12 05:55:55;;;;;;;19.38;15.18;;;;;;;20.09;74.68;100903.38;5061061;28;20098;-66
2021/07/12 05:58:21;;;;;;;23.98;14.43;;;;;;;20.16;74.61;100902.06;5052221;28;20045;-66
2021/07/12 06:00:47;;;;;;;24.08;15.38;;;;;;;20.25;74.67;100897.19;5052819;28;20102;-67
2021/07/12 06:03:15;;;;;;;28.15;17.70;;;;;;;20.31;74.05;100896.88;5056833;28;20469;-67
2021/07/12 06:05:42;;;;;;;21.30;15.68;;;;;;;20.40;73.85;100895.47;5052792;28;20713;-67
2021/07/12 06:08:08;;;;;;;20.95;15.27;;;;;;;20.45;73.35;100899.53;5064236;28;20098;-67
2021/07/12 06:10:35;;;;;;;17.35;14.80;;;;;;;20.42;73.91;100897.06;5052311;28;20049;-68
2021/07/12 06:13:01;;;;;;;21.80;16.63;;;;;;;20.50;73.11;100892.22;5056497;28;20091;-67
2021/07/12 06:15:28;;;;;;;20.35;14.30;;;;;;;20.57;72.84;100891.84;5040366;28;20048;-68
2021/07/12 06:17:54;;;;;;;19.48;14.57;;;;;;;20.67;72.43;100898.28;5039593;28;20060;-65
2021/07/12 06:20:22;;;;;;;19.05;14.15;;;;;;;20.85;72.62;100895.50;5044995;28;20056;-67
2021/07/12 06:22:50;;;;;;;20.92;14.18;;;;;;;21.01;72.09;100893.66;5061139;28;20651;-68
2021/07/12 06:25:19;;;;;;;18.40;13.35;;;;;;;21.16;71.38;100891.00;5050833;28;20049;-66
2021/07/12 06:27:46;;;;;;;17.75;14.18;;;;;;;21.20;71.64;100892.53;5059774;28;20610;-66
2021/07/12 06:30:14;;;;;;;21.17;14.13;;;;;;;21.21;71.65;100895.06;5049077;28;20417;-68
2021/07/12 06:32:40;;;;;;;28.67;14.38;;;;;;;21.21;70.98;100891.59;5050137;28;20048;-65
2021/07/12 06:35:09;;;;;;;22.13;13.18;;;;;;;21.23;71.34;100890.53;5061549;28;20566;-69
2021/07/12 06:37:37;;;;;;;21.48;13.13;;;;;;;21.20;71.11;100887.25;5044578;28;20062;-67
2021/07/12 06:40:04;;;;;;;18.13;14.10;;;;;;;21.16;70.45;100888.34;5044786;28;20053;-67
2021/07/12 06:42:30;;;;;;;21.55;14.60;;;;;;;21.19;70.90;100891.66;5054400;28;20053;-68
2021/07/12 06:44:58;;;;;;;21.65;14.13;;;;;;;21.35;69.96;100885.44;5049517;28;20054;-67
2021/07/12 06:47:26;;;;;;;18.45;12.75;;;;;;;21.57;69.66;100883.13;5049672;28;20657;-67
2021/07/12 06:49:52;;;;;;;19.50;13.52;;;;;;;21.73;68.66;100883.03;5049136;28;20139;-66
2021/07/12 06:52:19;;;;;;;17.65;13.10;;;;;;;21.95;69.28;100879.00;5054796;28;20464;-67
2021/07/12 06:54:47;;;;;;;25.45;14.13;;;;;;;22.03;67.25;100883.78;5078615;22;20056;-68
2021/07/12 06:57:14;;;;;;;19.42;13.82;;;;;;;22.07;67.45;100871.19;5058416;28;20052;-68
2021/07/12 06:59:41;;;;;;;22.85;13.85;;;;;;;22.04;67.08;100874.91;5064549;28;20049;-69
2021/07/12 07:02:09;;;;;;;17.17;12.90;;;;;;;21.96;67.90;100878.03;5060726;28;20634;-68
2021/07/12 07:04:35;;;;;;;18.70;12.98;;;;;;;22.11;66.73;100880.66;5062478;28;20049;-68
2021/07/12 07:07:02;;;;;;;18.85;11.32;;;;;;;22.24;66.76;100876.22;5059987;28;20056;-66
2021/07/12 07:09:28;;;;;;;20.83;12.50;;;;;;;22.49;65.55;100879.94;5061968;28;20048;-66
2021/07/12 07:11:56;;;;;;;18.48;12.55;;;;;;;22.68;64.83;100874.22;5069919;28;20048;-65
2021/07/12 07:14:22;;;;;;;25.77;13.48;;;;;;;22.79;65.00;100873.50;5061750;28;20047;-65
2021/07/12 07:16:49;;;;;;;18.80;12.05;;;;;;;22.98;64.37;100865.94;5064345;28;20456;-65
2021/07/12 07:19:15;;;;;;;24.10;13.10;;;;;;;23.10;63.64;100855.44;5061107;28;20040;-65
2021/07/12 07:21:42;;;;;;;19.73;11.65;;;;;;;23.17;63.89;100856.69;5054988;28;20093;-65
2021/07/12 07:24:08;;;;;;;18.95;12.32;;;;;;;23.22;62.98;100857.22;5068634;28;20090;-63
2021/07/12 07:26:34;;;;;;;17.63;12.32;;;;;;;23.26;62.28;100861.38;5051896;28;20486;-65
2021/07/12 07:29:02;;;;;;;19.55;12.02;;;;;;;23.25;62.18;100865.00;5062999;28;20498;-65
2021/07/12 07:31:29;;;;;;;16.27;10.73;;;;;;;23.42;62.13;100854.97;5066501;28;20056;-64
2021/07/12 07:33:55;;;;;;;23.38;11.35;;;;;;;23.40;62.80;100856.91;5062453;28;20045;-64
2021/07/12 07:36:22;;;;;;;19.10;10.57;;;;;;;23.52;61.21;100848.03;5062957;28;20122;-64
2021/07/12 07:38:48;;;;;;;16.63;10.45;;;;;;;23.54;61.34;100850.59;5061563;28;20049;-64
2021/07/12 07:41:14;;;;;;;15.02;10.25;;;;;;;23.51;61.36;100843.69;5061687;28;20067;-65
2021/07/12 07:43:41;;;;;;;16.00;10.02;;;;;;;23.38;61.74;100850.84;5066702;28;20045;-64
2021/07/12 07:46:09;;;;;;;21.08;10.27;;;;;;;23.38;62.38;100848.19;5063318;28;20142;-64
2021/07/12 07:48:35;;;;;;;14.13;9.52;;;;;;;23.46;62.76;100856.44;5064346;28;20406;-64
2021/07/12 07:51:02;;;;;;;18.85;10.65;;;;;;;23.66;60.78;100848.84;5067736;28;20049;-64
2021/07/12 07:53:28;;;;;;;95.95;67.03;;;;;;;23.60;60.16;100839.50;5066206;28;20675;-65
2021/07/12 07:55:55;;;;;;;20.25;13.45;;;;;;;23.65;60.19;100847.16;5066087;28;20049;-64
2021/07/12 07:58:21;;;;;;;18.48;11.43;;;;;;;23.64;61.06;100841.00;5060544;28;20040;-63
2021/07/12 08:00:48;;;;;;;18.20;9.57;;;;;;;23.87;59.03;100826.03;5064705;28;20059;-64
2021/07/12 08:03:15;;;;;;;19.88;9.23;;;;;;;23.72;59.70;100830.66;5066878;28;20410;-65
2021/07/12 08:05:42;;;;;;;15.13;8.98;;;;;;;23.75;59.74;100821.59;5064032;28;20505;-64
2021/07/12 08:08:08;;;;;;;13.85;8.65;;;;;;;23.80;59.02;100824.78;5067969;28;20044;-64
2021/07/12 08:10:35;;;;;;;16.13;8.35;;;;;;;23.86;59.17;100831.44;5066997;28;20056;-64
2021/07/12 08:13:01;;;;;;;15.38;8.75;;;;;;;23.90;59.61;100825.81;5065683;28;20150;-65
2021/07/12 08:15:27;;;;;;;14.93;8.70;;;;;;;23.92;59.93;100821.19;5066302;28;20106;-65
2021/07/12 08:17:54;;;;;;;12.43;7.47;;;;;;;24.10;58.50;100818.19;5065373;28;20993;-65
2021/07/12 08:20:22;;;;;;;13.82;8.32;;;;;;;24.12;58.56;100824.19;5068620;28;20044;-65
2021/07/12 08:22:51;;;;;;;14.07;7.28;;;;;;;24.18;57.93;100821.09;5067346;28;20474;-65
2021/07/12 08:25:18;;;;;;;13.73;7.90;;;;;;;24.37;57.76;100817.03;5064736;28;20040;-64
2021/07/12 08:27:45;;;;;;;17.30;8.57;;;;;;;24.44;57.80;100812.09;5068568;28;20044;-64
2021/07/12 08:30:13;;;;;;;16.75;9.27;;;;;;;24.39;56.12;100804.47;5057603;28;20090;-64
2021/07/12 08:32:40;;;;;;;15.20;8.30;;;;;;;24.34;56.09;100801.31;5055271;28;20113;-64
2021/07/12 08:35:07;;;;;;;22.50;9.02;;;;;;;24.41;56.59;100802.53;5064315;28;20036;-65
2021/07/12 08:37:36;;;;;;;16.52;7.50;;;;;;;24.44;56.02;100794.31;5067622;28;20048;-65
2021/07/12 08:40:04;;;;;;;18.80;9.07;;;;;;;24.43;55.35;100789.97;5067571;28;20056;-66
2021/07/12 08:42:31;;;;;;;14.57;8.02;;;;;;;24.48;54.91;100782.50;5061936;28;20109;-65
2021/07/12 08:44:57;;;;;;;14.82;8.85;;;;;;;24.43;56.42;100782.00;5059877;28;20044;-64
2021/07/12 08:47:24;;;;;;;14.57;8.07;;;;;;;24.66;53.43;100782.03;5066846;28;20052;-64
2021/07/12 08:49:50;;;;;;;14.10;8.15;;;;;;;24.63;54.37;100776.94;5067793;28;20098;-65
2021/07/12 08:52:17;;;;;;;13.07;7.10;;;;;;;24.70;53.93;100775.53;5065319;28;20379;-65
2021/07/12 08:54:45;;;;;;;13.95;7.88;;;;;;;24.51;54.14;100782.22;5064515;28;20052;-65
2021/07/12 08:57:12;;;;;;;15.63;8.15;;;;;;;24.65;54.30;100775.00;5067066;28;20114;-64
2021/07/12 08:59:41;;;;;;;15.82;7.70;;;;;;;24.52;54.68;100772.47;5065541;28;20051;-65
2021/07/12 09:02:09;;;;;;;13.82;7.80;;;;;;;24.33;55.76;100776.56;5066049;28;20048;-65
2021/07/12 09:04:38;;;;;;;13.25;7.13;;;;;;;24.22;55.22;100769.38;5064358;28;20040;-65
2021/07/12 09:07:06;;;;;;;14.52;8.65;;;;;;;24.15;55.87;100768.16;5064807;28;20063;-64
2021/07/12 09:09:33;;;;;;;19.85;9.88;;;;;;;24.16;55.30;100759.22;5059439;28;20056;-65
2021/07/12 09:12:12;;;;;;;17.13;10.25;;;;;;;24.24;55.68;100750.69;5066269;28;20052;-65
2021/07/12 09:14:40;;;;;;;17.67;9.80;;;;;;;24.42;55.44;100747.56;5068607;28;20102;-65
2021/07/12 09:17:08;;;;;;;9.35;5.10;;;;;;;24.57;54.57;100754.31;5058839;28;20494;-64
2021/07/12 09:19:36;;;;;;;6.93;4.28;;;;;;;24.64;54.27;100752.91;5062996;28;20387;-65
2021/07/12 09:22:04;;;;;;;9.30;5.03;;;;;;;24.55;53.76;100750.09;5064844;28;20534;-64
2021/07/12 09:24:34;;;;;;;12.15;5.65;;;;;;;24.31;54.03;100749.22;5064489;28;20098;-65
2021/07/12 09:27:04;;;;;;;9.23;5.60;;;;;;;24.09;54.67;100747.38;5066281;28;20137;-66
2021/07/12 09:29:35;;;;;;;11.80;4.90;;;;;;;24.24;54.42;100744.50;5069405;28;20521;-64
2021/07/12 09:32:04;;;;;;;6.68;4.60;;;;;;;24.23;54.72;100741.00;5065454;28;20136;-66
2021/07/12 09:34:31;;;;;;;4.80;3.33;;;;;;;24.45;53.19;100745.50;5061370;28;20040;-64
2021/07/12 09:36:58;;;;;;;6.03;3.40;;;;;;;24.62;52.56;100741.53;5066615;28;20052;-66
2021/07/12 09:39:37;;;;;;;5.47;3.08;;;;;;;24.76;53.77;100736.94;5069047;28;20559;-65
2021/07/12 09:42:06;;;;;;;6.43;3.30;;;;;;;24.67;51.78;100742.00;5061088;28;20090;-66
2021/07/12 09:44:36;;;;;;;5.63;3.35;;;;;;;24.75;50.89;100736.09;5064441;28;20037;-65
2021/07/12 09:47:07;;;;;;;7.22;3.22;;;;;;;24.57;51.21;100726.91;5063846;28;20044;-66
2021/07/12 09:49:34;;;;;;;17.35;10.25;;;;;;;24.46;51.43;100720.59;5060747;28;20086;-65
2021/07/12 09:52:03;;;;;;;5.85;3.92;;;;;;;24.44;52.11;100722.53;5067022;28;20052;-66
2021/07/12 09:54:33;;;;;;;5.72;3.28;;;;;;;24.46;52.16;100733.03;5060083;28;20151;-66
2021/07/12 09:57:03;;;;;;;6.32;2.90;;;;;;;24.60;53.02;100727.50;5061328;28;20052;-66
2021/07/12 09:59:30;;;;;;;5.25;2.67;;;;;;;24.83;50.64;100717.72;5062662;28;20041;-65
2021/07/12 10:01:58;;;;;;;4.60;3.10;;;;;;;24.80;51.87;100720.63;5066786;28;20106;-66
2021/07/12 10:04:25;;;;;;;6.70;2.92;;;;;;;24.75;50.67;100698.88;5065595;28;20048;-69
2021/07/12 10:06:53;;;;;;;4.50;2.67;;;;;;;24.92;51.12;100708.16;5064530;28;20524;-66
2021/07/12 10:09:22;;;;;;;3.97;2.65;;;;;;;24.95;50.23;100710.56;5059656;28;20044;-66
2021/07/12 10:11:49;;;;;;;4.85;2.55;;;;;;;24.86;50.14;100711.28;5067307;28;20076;-66
2021/07/12 10:14:17;;;;;;;4.15;2.83;;;;;;;24.83;50.01;100712.38;5062391;28;20111;-66
2021/07/12 10:16:44;;;;;;;4.30;2.70;;;;;;;24.98;50.24;100698.84;5068382;28;20048;-65
2021/07/12 10:19:12;;;;;;;5.68;3.08;;;;;;;25.42;48.94;100691.69;5068682;28;20090;-65
2021/07/12 10:21:41;;;;;;;5.45;2.55;;;;;;;25.34;49.76;100687.97;5062453;28;20516;-65
2021/07/12 10:24:08;;;;;;;5.65;2.80;;;;;;;25.38;50.11;100695.56;5069038;28;20048;-66
2021/07/12 10:26:50;;;;;;;7.72;5.72;;;;;;;25.51;48.67;100694.56;5068012;28;20425;-66
2021/07/12 10:29:18;;;;;;;4.78;2.88;;;;;;;25.68;47.22;100690.47;5068453;28;20509;-67
2021/07/12 10:31:59;;;;;;;5.15;2.30;;;;;;;25.66;50.03;100703.94;5070399;28;20047;-65
2021/07/12 10:34:29;;;;;;;5.47;2.67;;;;;;;25.98;49.08;100692.38;5061639;28;20057;-64
2021/07/12 10:37:01;;;;;;;5.75;3.63;;;;;;;26.18;47.72;100695.19;5069939;28;20048;-65
2021/07/12 10:40:08;;;;;;;11.20;8.43;;;;;;;26.05;47.26;100688.19;5069416;28;20514;-65
2021/07/12 10:42:55;;;;;;;6.47;3.33;;;;;;;25.97;47.64;100680.03;5066630;28;20716;-65
2021/07/12 10:45:25;;;;;;;6.25;2.42;;;;;;;25.91;47.15;100681.38;5064898;28;20053;-65
2021/07/12 10:47:54;;;;;;;4.18;2.42;;;;;;;25.88;47.29;100680.81;5061211;28;20568;-65
2021/07/12 10:50:51;;;;;;;6.72;3.30;;;;;;;25.81;46.62;100679.63;5062967;28;20135;-65
2021/07/12 10:53:39;;;;;;;5.97;2.90;;;;;;;25.87;47.79;100673.78;5066937;28;20048;-65
2021/07/12 10:56:17;;;;;;;4.80;2.80;;;;;;;26.04;47.57;100670.50;5063815;28;22980;-66
2021/07/12 10:58:52;;;;;;;5.78;3.17;;;;;;;26.19;47.43;100678.22;5066031;28;20122;-66
2021/07/12 11:01:43;;;;;;;5.53;2.55;;;;;;;26.46;44.59;100669.59;5062492;28;20048;-66
2021/07/12 11:04:39;;;;;;;4.80;2.40;;;;;;;26.50;45.60;100665.69;5061380;28;20052;-65
2021/07/12 11:07:09;;;;;;;5.68;2.17;;;;;;;26.61;45.48;100672.72;5057626;28;20414;-66
2021/07/12 11:09:54;;;;;;;4.55;2.33;;;;;;;26.66;46.44;100673.19;5063307;28;20048;-65
2021/07/12 11:12:51;;;;;;;4.68;2.30;;;;;;;26.70;44.32;100661.25;5068232;28;20048;-65
2021/07/12 11:15:31;;;;;;;3.72;2.20;;;;;;;26.74;45.33;100672.50;5063160;28;20044;-65
2021/07/12 11:18:02;;;;;;;4.05;2.30;;;;;;;26.56;45.12;100669.66;5052686;28;20468;-67
2021/07/12 11:20:43;;;;;;;3.60;2.13;;;;;;;26.95;46.45;100668.94;5062751;28;20044;-66
2021/07/12 11:23:52;;;;;;;4.82;1.83;;;;;;;27.36;43.64;100666.97;5065400;28;20052;-65
2021/07/12 11:26:42;;;;;;;3.25;2.03;;;;;;;27.31;42.99;100664.72;5065852;28;20047;-65